createdAt,value
2018-12-16T00:00:07.501Z,91.12
2018-12-16T00:01:07.522Z,90.39
2018-12-16T00:02:07.480Z,90.70
2018-12-16T00:03:07.466Z,90.49
2018-12-16T00:04:07.455Z,90.70
2018-12-16T00:05:07.448Z,90.56
2018-12-16T00:06:07.456Z,90.59
2018-12-16T00:07:07.419Z,91.28
2018-12-16T00:08:07.412Z,90.14
2018-12-16T00:09:07.399Z,89.72
2018-12-16T00:10:07.388Z,89.40
2018-12-16T00:11:07.386Z,89.51
2018-12-16T00:12:07.367Z,89.72
2018-12-16T00:13:07.357Z,89.83
2018-12-16T00:14:07.394Z,89.65
2018-12-16T00:15:07.336Z,90.14
2018-12-16T00:16:07.332Z,89.76
2018-12-16T00:17:07.321Z,89.97
2018-12-16T00:18:07.306Z,89.55
2018-12-16T00:19:07.293Z,89.86
2018-12-16T00:20:07.280Z,89.83
2018-12-16T00:21:07.315Z,89.61
2018-12-16T00:22:07.259Z,90.14
2018-12-16T00:23:07.262Z,89.30
2018-12-16T00:24:07.238Z,89.20
2018-12-16T00:25:07.232Z,89.61
2018-12-16T00:26:07.221Z,89.30
2018-12-16T00:27:07.216Z,89.03
2018-12-16T00:28:07.197Z,89.23
2018-12-16T00:29:07.196Z,89.40
2018-12-16T00:30:07.175Z,89.13
2018-12-16T00:31:07.166Z,88.92
2018-12-16T00:32:07.162Z,89.13
2018-12-16T00:33:07.143Z,89.55
2018-12-16T00:34:07.133Z,89.13
2018-12-16T00:35:07.123Z,89.34
2018-12-16T00:36:07.111Z,89.34
2018-12-16T00:37:07.110Z,88.71
2018-12-16T00:38:07.090Z,88.61
2018-12-16T00:39:07.087Z,88.50
2018-12-16T00:40:07.071Z,88.61
2018-12-16T00:41:07.057Z,88.71
2018-12-16T00:42:07.056Z,88.40
2018-12-16T00:43:07.035Z,88.71
2018-12-16T00:44:07.024Z,88.61
2018-12-16T00:45:07.022Z,88.50
2018-12-16T00:46:07.013Z,88.61
2018-12-16T00:47:07.017Z,89.23
2018-12-16T00:48:06.993Z,88.50
2018-12-16T00:49:06.973Z,88.71
2018-12-16T00:50:07.002Z,88.40
2018-12-16T00:51:06.952Z,89.03
2018-12-16T00:52:06.950Z,88.82
2018-12-16T00:53:06.952Z,88.92
2018-12-16T00:54:06.931Z,88.61
2018-12-16T00:55:06.909Z,88.29
2018-12-16T00:56:06.929Z,87.15
2018-12-16T00:57:06.898Z,87.56
2018-12-16T00:58:06.889Z,88.61
2018-12-16T00:59:06.868Z,87.15
2018-12-16T01:00:06.859Z,86.83
2018-12-16T01:01:06.848Z,86.93
2018-12-16T01:02:06.852Z,87.04
2018-12-16T01:03:06.825Z,87.56
2018-12-16T01:04:06.819Z,86.55
2018-12-16T01:05:06.803Z,86.41
2018-12-16T01:06:06.792Z,86.93
2018-12-16T01:07:06.897Z,86.62
2018-12-16T01:08:06.771Z,87.04
2018-12-16T01:09:06.759Z,87.15
2018-12-16T01:10:06.755Z,86.52
2018-12-16T01:11:06.739Z,86.62
2018-12-16T01:12:06.738Z,86.72
2018-12-16T01:13:06.741Z,86.31
2018-12-16T01:14:06.705Z,84.63
2018-12-16T01:15:06.697Z,85.16
2018-12-16T01:16:06.692Z,85.99
2018-12-16T01:17:06.683Z,85.68
2018-12-16T01:18:06.665Z,85.58
2018-12-16T01:19:06.653Z,84.74
2018-12-16T01:20:06.644Z,85.47
2018-12-16T01:21:06.637Z,85.58
2018-12-16T01:22:06.637Z,85.36
2018-12-16T01:23:06.610Z,85.36
2018-12-16T01:24:06.608Z,85.58
2018-12-16T01:25:06.590Z,84.67
2018-12-16T01:26:06.644Z,84.32
2018-12-16T01:27:06.600Z,85.82
2018-12-16T01:28:06.581Z,85.82
2018-12-16T01:29:06.546Z,85.61
2018-12-16T01:30:06.538Z,85.72
2018-12-16T01:31:06.530Z,85.78
2018-12-16T01:32:06.524Z,86.52
2018-12-16T01:33:06.506Z,84.05
2018-12-16T01:34:06.494Z,84.15
2018-12-16T01:35:06.486Z,85.51
2018-12-16T01:36:06.476Z,85.82
2018-12-16T01:37:06.472Z,82.02
2018-12-16T01:38:06.453Z,83.31
2018-12-16T01:39:06.444Z,83.83
2018-12-16T01:40:06.430Z,81.43
2018-12-16T01:41:06.420Z,81.85
2018-12-16T01:42:06.419Z,81.95
2018-12-16T01:43:06.400Z,82.06
2018-12-16T01:44:06.388Z,81.63
2018-12-16T01:45:06.380Z,82.12
2018-12-16T01:46:06.369Z,83.31
2018-12-16T01:47:06.364Z,83.52
2018-12-16T01:48:06.346Z,83.42
2018-12-16T01:49:06.335Z,83.52
2018-12-16T01:50:06.327Z,83.27
2018-12-16T01:51:06.322Z,83.48
2018-12-16T01:52:06.302Z,83.80
2018-12-16T01:53:06.304Z,81.63
2018-12-16T01:54:06.282Z,83.42
2018-12-16T01:55:06.274Z,81.53
2018-12-16T01:56:06.265Z,82.12
2018-12-16T01:57:06.254Z,82.33
2018-12-16T01:58:06.249Z,83.42
2018-12-16T01:59:06.230Z,81.81
2018-12-16T02:00:06.220Z,81.01
2018-12-16T02:01:06.209Z,81.22
2018-12-16T02:02:06.203Z,81.22
2018-12-16T02:03:06.212Z,79.02
2018-12-16T02:04:06.179Z,80.17
2018-12-16T02:05:06.165Z,80.49
2018-12-16T02:06:06.158Z,81.74
2018-12-16T02:07:06.147Z,81.85
2018-12-16T02:08:06.149Z,81.74
2018-12-16T02:09:06.121Z,82.06
2018-12-16T02:10:06.112Z,82.65
2018-12-16T02:11:06.107Z,81.12
2018-12-16T02:12:06.093Z,79.86
2018-12-16T02:13:06.093Z,80.59
2018-12-16T02:14:06.071Z,79.96
2018-12-16T02:15:06.059Z,78.18
2018-12-16T02:16:06.049Z,78.50
2018-12-16T02:17:06.043Z,78.50
2018-12-16T02:18:06.036Z,79.54
2018-12-16T02:19:06.016Z,79.72
2018-12-16T02:20:06.006Z,78.18
2018-12-16T02:21:05.995Z,78.56
2018-12-16T02:22:05.985Z,80.17
2018-12-16T02:23:05.988Z,78.15
2018-12-16T02:24:05.966Z,78.39
2018-12-16T02:25:05.955Z,77.03
2018-12-16T02:26:05.944Z,77.45
2018-12-16T02:27:05.931Z,77.03
2018-12-16T02:28:05.929Z,77.73
2018-12-16T02:29:05.913Z,79.13
2018-12-16T02:30:05.899Z,78.81
2018-12-16T02:31:05.895Z,77.20
2018-12-16T02:32:05.882Z,79.23
2018-12-16T02:33:05.880Z,78.29
2018-12-16T02:34:05.857Z,79.75
2018-12-16T02:35:05.845Z,77.55
2018-12-16T02:36:05.835Z,77.03
2018-12-16T02:37:05.832Z,77.66
2018-12-16T02:38:05.829Z,75.88
2018-12-16T02:39:05.805Z,75.67
2018-12-16T02:40:05.791Z,73.58
2018-12-16T02:41:05.787Z,75.35
2018-12-16T02:42:05.775Z,76.93
2018-12-16T02:43:05.778Z,76.68
2018-12-16T02:44:05.755Z,71.80
2018-12-16T02:45:05.741Z,72.22
2018-12-16T02:46:05.730Z,72.32
2018-12-16T02:47:05.717Z,70.83
2018-12-16T02:48:05.721Z,71.97
2018-12-16T02:49:05.706Z,72.19
2018-12-16T02:50:05.690Z,70.61
2018-12-16T02:51:05.678Z,70.09
2018-12-16T02:52:05.667Z,69.99
2018-12-16T02:53:05.676Z,68.63
2018-12-16T02:54:05.645Z,70.72
2018-12-16T02:55:05.637Z,70.61
2018-12-16T02:56:05.623Z,71.24
2018-12-16T02:57:05.613Z,71.87
2018-12-16T02:58:05.614Z,71.14
2018-12-16T02:59:05.592Z,70.86
2018-12-16T03:00:05.583Z,72.22
2018-12-16T03:01:05.572Z,73.16
2018-12-16T03:02:05.559Z,73.89
2018-12-16T03:03:05.560Z,75.57
2018-12-16T03:04:05.538Z,74.21
2018-12-16T03:05:05.532Z,73.79
2018-12-16T03:06:05.521Z,73.89
2018-12-16T03:07:05.513Z,74.94
2018-12-16T03:08:05.505Z,75.04
2018-12-16T03:09:05.485Z,75.15
2018-12-16T03:10:05.476Z,75.57
2018-12-16T03:11:05.467Z,75.15
2018-12-16T03:12:05.455Z,74.10
2018-12-16T03:13:05.458Z,75.35
2018-12-16T03:14:05.430Z,75.46
2018-12-16T03:15:05.425Z,76.61
2018-12-16T03:16:05.412Z,76.93
2018-12-16T03:17:05.399Z,77.03
2018-12-16T03:18:05.428Z,76.82
2018-12-16T03:19:05.389Z,77.73
2018-12-16T03:20:05.370Z,76.72
2018-12-16T03:21:05.358Z,77.76
2018-12-16T03:22:05.350Z,79.02
2018-12-16T03:23:11.968Z,79.02
2018-12-16T03:24:06.344Z,78.70
2018-12-16T03:25:05.314Z,80.07
2018-12-16T03:26:05.304Z,80.59
2018-12-16T03:27:05.302Z,79.96
2018-12-16T03:28:05.283Z,79.96
2018-12-16T03:29:05.281Z,80.59
2018-12-16T03:30:05.264Z,81.32
2018-12-16T03:31:05.272Z,80.49
2018-12-16T03:32:05.254Z,81.85
2018-12-16T03:33:05.230Z,82.09
2018-12-16T03:34:05.230Z,82.26
2018-12-16T03:35:05.209Z,81.85
2018-12-16T03:36:05.196Z,82.26
2018-12-16T03:37:05.187Z,81.95
2018-12-16T03:38:05.180Z,81.53
2018-12-16T03:39:05.174Z,82.47
2018-12-16T03:40:05.156Z,82.47
2018-12-16T03:41:05.150Z,82.16
2018-12-16T03:42:05.136Z,82.26
2018-12-16T03:43:05.125Z,82.47
2018-12-16T03:44:05.121Z,82.37
2018-12-16T03:45:05.102Z,82.26
2018-12-16T03:46:05.093Z,81.74
2018-12-16T03:47:05.087Z,82.33
2018-12-16T03:48:05.073Z,82.37
2018-12-16T03:49:05.068Z,82.58
2018-12-16T03:50:05.046Z,83.10
2018-12-16T03:51:05.041Z,83.42
2018-12-16T03:52:05.025Z,83.31
2018-12-16T03:53:05.019Z,83.83
2018-12-16T03:54:05.021Z,83.98
2018-12-16T03:55:04.992Z,84.05
2018-12-16T03:56:04.983Z,83.83
2018-12-16T03:57:04.974Z,84.15
2018-12-16T03:58:04.961Z,83.42
2018-12-16T03:59:04.963Z,83.00
2018-12-16T04:00:04.946Z,83.42
2018-12-16T04:01:04.933Z,83.42
2018-12-16T04:02:04.926Z,83.42
2018-12-16T04:03:04.909Z,83.31
2018-12-16T04:04:04.911Z,83.56
2018-12-16T04:05:04.912Z,83.83
2018-12-16T04:06:04.878Z,83.73
2018-12-16T04:07:04.891Z,83.73
2018-12-16T04:08:04.855Z,83.87
2018-12-16T04:09:04.857Z,83.94
2018-12-16T04:10:04.844Z,84.08
2018-12-16T04:11:04.825Z,84.19
2018-12-16T04:12:04.813Z,84.46
2018-12-16T04:13:04.810Z,84.71
2018-12-16T04:14:04.803Z,85.75
2018-12-16T04:15:04.784Z,85.97
2018-12-16T04:16:04.774Z,85.86
2018-12-16T04:17:04.769Z,85.41
2018-12-16T04:18:04.748Z,84.71
2018-12-16T04:19:04.749Z,84.81
2018-12-16T04:20:04.730Z,84.50
2018-12-16T04:21:04.718Z,85.02
2018-12-16T04:22:04.707Z,84.92
2018-12-16T04:23:04.705Z,85.65
2018-12-16T04:24:04.693Z,86.14
2018-12-16T04:25:04.675Z,86.04
2018-12-16T04:26:04.662Z,85.82
2018-12-16T04:27:04.653Z,85.93
2018-12-16T04:28:04.641Z,84.78
2018-12-16T04:29:04.650Z,84.29
2018-12-16T04:30:04.621Z,84.78
2018-12-16T04:31:04.609Z,85.44
2018-12-16T04:32:04.599Z,85.41
2018-12-16T04:33:04.590Z,85.55
2018-12-16T04:34:04.588Z,86.14
2018-12-16T04:35:04.571Z,84.88
2018-12-16T04:36:04.559Z,85.41
2018-12-16T04:37:04.545Z,85.55
2018-12-16T04:38:04.533Z,85.86
2018-12-16T04:39:04.537Z,85.65
2018-12-16T04:40:04.516Z,85.97
2018-12-16T04:41:04.501Z,85.75
2018-12-16T04:42:04.491Z,85.65
2018-12-16T04:43:04.480Z,85.65
2018-12-16T04:44:04.478Z,85.44
2018-12-16T04:45:04.459Z,85.44
2018-12-16T04:46:04.450Z,85.34
2018-12-16T04:47:04.436Z,84.92
2018-12-16T04:48:04.426Z,85.44
2018-12-16T04:49:04.444Z,85.65
2018-12-16T04:50:04.406Z,85.44
2018-12-16T04:51:04.394Z,85.86
2018-12-16T04:52:04.388Z,85.55
2018-12-16T04:53:04.370Z,85.97
2018-12-16T04:54:04.364Z,85.97
2018-12-16T04:55:04.361Z,85.86
2018-12-16T04:56:04.341Z,85.55
2018-12-16T04:57:04.333Z,85.75
2018-12-16T04:58:04.321Z,85.75
2018-12-16T04:59:04.309Z,85.44
2018-12-16T05:00:04.312Z,85.34
2018-12-16T05:01:04.286Z,84.92
2018-12-16T05:02:04.276Z,84.81
2018-12-16T05:03:04.267Z,84.81
2018-12-16T05:04:04.256Z,85.55
2018-12-16T05:05:04.253Z,85.44
2018-12-16T05:06:04.235Z,85.55
2018-12-16T05:07:04.221Z,85.55
2018-12-16T05:08:04.216Z,85.34
2018-12-16T05:09:04.213Z,85.55
2018-12-16T05:10:04.201Z,85.97
2018-12-16T05:11:04.182Z,85.97
2018-12-16T05:12:04.167Z,85.75
2018-12-16T05:13:04.158Z,86.07
2018-12-16T05:14:04.155Z,86.18
2018-12-16T05:15:04.146Z,85.65
2018-12-16T05:16:04.126Z,85.55
2018-12-16T05:17:04.122Z,85.86
2018-12-16T05:18:04.109Z,85.97
2018-12-16T05:19:04.099Z,86.18
2018-12-16T05:20:04.093Z,85.86
2018-12-16T05:21:04.072Z,85.86
2018-12-16T05:22:04.062Z,85.86
2018-12-16T05:23:04.053Z,85.65
2018-12-16T05:24:04.041Z,85.55
2018-12-16T05:25:04.038Z,85.97
2018-12-16T05:26:04.020Z,85.65
2018-12-16T05:27:04.014Z,85.61
2018-12-16T05:28:04.001Z,85.44
2018-12-16T05:29:03.986Z,85.86
2018-12-16T05:30:03.984Z,85.97
2018-12-16T05:31:03.965Z,86.38
2018-12-16T05:32:03.954Z,85.75
2018-12-16T05:33:03.947Z,86.28
2018-12-16T05:34:03.931Z,86.38
2018-12-16T05:35:03.930Z,86.74
2018-12-16T05:36:03.910Z,86.07
2018-12-16T05:37:03.903Z,86.60
2018-12-16T05:38:03.890Z,86.49
2018-12-16T05:39:03.881Z,87.01
2018-12-16T05:40:03.878Z,86.91
2018-12-16T05:41:03.857Z,86.63
2018-12-16T05:42:03.847Z,86.95
2018-12-16T05:43:03.841Z,86.91
2018-12-16T05:44:03.830Z,86.74
2018-12-16T05:45:03.824Z,86.85
2018-12-16T05:46:03.805Z,86.60
2018-12-16T05:47:03.791Z,86.60
2018-12-16T05:48:03.781Z,86.63
2018-12-16T05:49:03.774Z,87.01
2018-12-16T05:50:03.771Z,85.97
2018-12-16T05:51:03.750Z,86.91
2018-12-16T05:52:03.738Z,86.95
2018-12-16T05:53:03.732Z,86.38
2018-12-16T05:54:03.723Z,86.70
2018-12-16T05:55:03.722Z,86.43
2018-12-16T05:56:03.696Z,87.23
2018-12-16T05:57:03.684Z,85.75
2018-12-16T05:58:03.672Z,86.95
2018-12-16T05:59:03.661Z,86.91
2018-12-16T06:00:03.665Z,87.23
2018-12-16T06:01:03.642Z,87.26
2018-12-16T06:02:03.636Z,86.95
2018-12-16T06:03:03.619Z,86.91
2018-12-16T06:04:03.609Z,86.28
2018-12-16T06:05:03.608Z,86.80
2018-12-16T06:06:03.591Z,86.74
2018-12-16T06:07:03.576Z,86.49
2018-12-16T06:08:03.579Z,86.85
2018-12-16T06:09:03.555Z,86.00
2018-12-16T06:10:03.555Z,85.86
2018-12-16T06:11:03.536Z,86.18
2018-12-16T06:12:03.532Z,86.00
2018-12-16T06:13:03.514Z,86.49
2018-12-16T06:14:03.510Z,86.63
2018-12-16T06:15:03.502Z,85.48
2018-12-16T06:16:03.486Z,85.86
2018-12-16T06:17:03.471Z,86.11
2018-12-16T06:18:03.471Z,86.95
2018-12-16T06:19:03.453Z,86.53
2018-12-16T06:20:03.474Z,86.00
2018-12-16T06:21:03.428Z,85.24
2018-12-16T06:22:03.418Z,85.55
2018-12-16T06:23:03.410Z,85.75
2018-12-16T06:24:03.400Z,86.32
2018-12-16T06:25:03.385Z,86.38
2018-12-16T06:26:03.389Z,86.07
2018-12-16T06:27:03.364Z,86.95
2018-12-16T06:28:03.354Z,86.38
2018-12-16T06:29:03.347Z,86.91
2018-12-16T06:30:03.332Z,86.28
2018-12-16T06:31:03.331Z,85.97
2018-12-16T06:32:03.312Z,85.65
2018-12-16T06:33:03.299Z,85.24
2018-12-16T06:34:03.291Z,85.97
2018-12-16T06:35:03.279Z,85.34
2018-12-16T06:36:03.277Z,84.85
2018-12-16T06:37:03.262Z,84.19
2018-12-16T06:38:03.244Z,84.44
2018-12-16T06:39:03.236Z,84.64
2018-12-16T06:40:03.231Z,85.75
2018-12-16T06:41:03.231Z,84.61
2018-12-16T06:42:03.203Z,85.34
2018-12-16T06:43:03.195Z,85.86
2018-12-16T06:44:03.183Z,86.28
2018-12-16T06:45:03.172Z,86.00
2018-12-16T06:46:03.169Z,85.55
2018-12-16T06:47:03.149Z,86.28
2018-12-16T06:48:03.140Z,84.81
2018-12-16T06:49:03.133Z,85.75
2018-12-16T06:50:03.118Z,84.12
2018-12-16T06:51:03.114Z,84.39
2018-12-16T06:52:03.096Z,84.61
2018-12-16T06:53:03.086Z,84.29
2018-12-16T06:54:03.092Z,84.22
2018-12-16T06:55:03.063Z,84.29
2018-12-16T06:56:06.635Z,83.14
2018-12-16T06:57:03.042Z,83.91
2018-12-16T06:58:03.032Z,84.08
2018-12-16T06:59:03.020Z,84.01
2018-12-16T07:00:03.011Z,83.49
2018-12-16T07:01:03.012Z,83.45
2018-12-16T07:02:02.988Z,83.59
2018-12-16T07:03:02.977Z,84.39
2018-12-16T07:04:02.968Z,85.44
2018-12-16T07:05:02.957Z,84.33
2018-12-16T07:06:02.955Z,84.08
2018-12-16T07:07:02.934Z,84.19
2018-12-16T07:08:02.921Z,84.64
2018-12-16T07:09:02.915Z,81.67
2018-12-16T07:10:02.906Z,79.83
2018-12-16T07:11:02.904Z,81.04
2018-12-16T07:12:02.882Z,81.99
2018-12-16T07:13:02.883Z,81.04
2018-12-16T07:14:02.859Z,80.94
2018-12-16T07:15:02.847Z,81.46
2018-12-16T07:16:02.854Z,82.09
2018-12-16T07:17:02.832Z,81.57
2018-12-16T07:18:02.822Z,81.15
2018-12-16T07:19:02.804Z,80.42
2018-12-16T07:20:02.793Z,80.63
2018-12-16T07:21:02.796Z,80.63
2018-12-16T07:22:02.773Z,79.96
2018-12-16T07:23:02.822Z,78.01
2018-12-16T07:24:09.049Z,78.43
2018-12-16T07:25:03.739Z,79.54
2018-12-16T07:26:02.742Z,76.51
2018-12-16T07:27:02.721Z,76.93
2018-12-16T07:28:02.727Z,76.51
2018-12-16T07:29:02.738Z,77.24
2018-12-16T07:30:02.713Z,78.08
2018-12-16T07:31:02.722Z,76.33
2018-12-16T07:32:02.666Z,77.03
2018-12-16T07:33:02.659Z,75.88
2018-12-16T07:34:02.678Z,75.81
2018-12-16T07:35:02.642Z,75.15
2018-12-16T07:36:02.638Z,76.12
2018-12-16T07:37:02.613Z,75.25
2018-12-16T07:38:02.617Z,76.12
2018-12-16T07:39:02.592Z,76.51
2018-12-16T07:40:02.588Z,75.46
2018-12-16T07:41:02.580Z,76.82
2018-12-16T07:42:02.558Z,76.82
2018-12-16T07:43:02.574Z,76.93
2018-12-16T07:44:02.556Z,77.34
2018-12-16T07:45:02.524Z,77.66
2018-12-16T07:46:02.540Z,77.66
2018-12-16T07:47:02.508Z,77.24
2018-12-16T07:48:02.494Z,75.18
2018-12-16T07:49:02.487Z,75.57
2018-12-16T07:50:02.472Z,75.60
2018-12-16T07:51:02.495Z,76.12
2018-12-16T07:52:02.451Z,77.14
2018-12-16T07:53:02.512Z,76.20
2018-12-16T07:54:02.436Z,76.20
2018-12-16T07:55:02.429Z,74.94
2018-12-16T07:56:02.446Z,75.57
2018-12-16T07:57:02.396Z,75.57
2018-12-16T07:58:02.390Z,75.67
2018-12-16T07:59:02.415Z,76.09
2018-12-16T08:00:02.390Z,77.24
2018-12-16T08:01:02.353Z,78.08
2018-12-16T08:02:02.391Z,76.20
2018-12-16T08:03:02.339Z,75.46
2018-12-16T08:04:02.323Z,76.93
2018-12-16T08:05:02.314Z,77.66
2018-12-16T08:06:02.303Z,76.61
2018-12-16T08:07:02.299Z,77.03
2018-12-16T08:08:02.282Z,77.45
2018-12-16T08:09:02.272Z,79.33
2018-12-16T08:10:02.258Z,76.72
2018-12-16T08:11:02.245Z,77.03
2018-12-16T08:12:02.246Z,77.87
2018-12-16T08:13:02.228Z,77.14
2018-12-16T08:14:02.213Z,77.38
2018-12-16T08:15:02.206Z,78.18
2018-12-16T08:16:02.194Z,77.97
2018-12-16T08:17:02.197Z,77.03
2018-12-16T08:18:02.172Z,77.24
2018-12-16T08:19:06.931Z,77.24
2018-12-16T08:20:03.154Z,77.97
2018-12-16T08:21:02.139Z,78.08
2018-12-16T08:22:02.144Z,77.14
2018-12-16T08:23:02.119Z,76.30
2018-12-16T08:24:02.107Z,75.15
2018-12-16T08:25:02.101Z,75.29
2018-12-16T08:26:02.087Z,76.44
2018-12-16T08:27:02.087Z,76.82
2018-12-16T08:28:02.070Z,77.14
2018-12-16T08:29:02.453Z,77.34
2018-12-16T08:30:02.043Z,75.98
2018-12-16T08:31:02.036Z,75.67
2018-12-16T08:32:02.039Z,76.51
2018-12-16T08:33:02.014Z,76.51
2018-12-16T08:34:02.002Z,77.24
2018-12-16T08:35:01.992Z,77.94
2018-12-16T08:36:01.980Z,77.66
2018-12-16T08:37:01.979Z,77.45
2018-12-16T08:38:01.966Z,77.45
2018-12-16T08:39:01.949Z,76.82
2018-12-16T08:40:01.939Z,77.45
2018-12-16T08:41:01.928Z,77.55
2018-12-16T08:42:01.928Z,77.24
2018-12-16T08:43:01.910Z,76.30
2018-12-16T08:44:01.895Z,77.24
2018-12-16T08:45:01.884Z,76.20
2018-12-16T08:46:01.902Z,77.87
2018-12-16T08:47:01.869Z,78.50
2018-12-16T08:48:01.855Z,77.42
2018-12-16T08:49:01.842Z,77.62
2018-12-16T08:50:01.833Z,77.10
2018-12-16T08:51:01.823Z,75.43
2018-12-16T08:52:01.823Z,75.74
2018-12-16T08:53:01.799Z,76.06
2018-12-16T08:54:01.789Z,76.68
2018-12-16T08:55:01.778Z,77.20
2018-12-16T08:56:01.767Z,78.04
2018-12-16T08:57:01.763Z,76.57
2018-12-16T08:58:01.747Z,76.79
2018-12-16T08:59:01.734Z,75.53
2018-12-16T09:00:01.726Z,76.16
2018-12-16T09:01:01.714Z,76.57
2018-12-16T09:02:01.711Z,76.89
2018-12-16T09:03:01.698Z,76.16
2018-12-16T09:04:01.687Z,77.42
2018-12-16T09:05:01.671Z,77.42
2018-12-16T09:06:01.663Z,77.94
2018-12-16T09:07:01.659Z,77.42
2018-12-16T09:08:01.640Z,77.00
2018-12-16T09:09:01.629Z,74.07
2018-12-16T09:10:01.618Z,74.14
2018-12-16T09:11:01.611Z,75.22
2018-12-16T09:12:01.606Z,75.11
2018-12-16T09:13:01.585Z,75.53
2018-12-16T09:14:01.579Z,75.43
2018-12-16T09:15:01.586Z,75.53
2018-12-16T09:16:01.556Z,76.16
2018-12-16T09:17:01.552Z,77.73
2018-12-16T09:18:01.533Z,75.11
2018-12-16T09:19:01.529Z,74.80
2018-12-16T09:20:01.514Z,74.17
2018-12-16T09:21:01.500Z,74.14
2018-12-16T09:22:01.530Z,75.32
2018-12-16T09:23:01.545Z,73.13
2018-12-16T09:24:01.469Z,73.72
2018-12-16T09:25:01.457Z,73.13
2018-12-16T09:26:01.461Z,72.67
2018-12-16T09:27:01.437Z,74.07
2018-12-16T09:28:01.432Z,75.08
2018-12-16T09:29:01.414Z,75.39
2018-12-16T09:30:01.407Z,74.69
2018-12-16T09:31:01.393Z,75.39
2018-12-16T09:32:02.841Z,74.04
2018-12-16T09:33:01.379Z,74.04
2018-12-16T09:34:01.360Z,74.14
2018-12-16T09:35:01.351Z,73.72
2018-12-16T09:36:01.340Z,73.79
2018-12-16T09:37:01.328Z,72.57
2018-12-16T09:38:01.331Z,73.09
2018-12-16T09:39:01.307Z,72.78
2018-12-16T09:40:01.311Z,72.67
2018-12-16T09:41:01.291Z,73.72
2018-12-16T09:42:01.278Z,72.92
2018-12-16T09:43:01.273Z,73.09
2018-12-16T09:44:01.252Z,74.45
2018-12-16T09:45:01.262Z,73.72
2018-12-16T09:46:01.237Z,72.78
2018-12-16T09:47:01.223Z,73.41
2018-12-16T09:48:01.222Z,73.09
2018-12-16T09:49:01.221Z,73.41
2018-12-16T09:50:01.191Z,72.57
2018-12-16T09:51:01.178Z,71.31
2018-12-16T09:52:01.168Z,72.47
2018-12-16T09:53:01.169Z,72.99
2018-12-16T09:54:01.151Z,72.57
2018-12-16T09:55:01.136Z,72.78
2018-12-16T09:56:01.125Z,71.73
2018-12-16T09:57:01.117Z,71.94
2018-12-16T09:58:01.113Z,72.78
2018-12-16T09:59:01.096Z,71.84
2018-12-16T10:00:01.082Z,72.88
2018-12-16T10:01:01.075Z,72.78
2018-12-16T10:02:01.060Z,73.30
2018-12-16T10:03:01.057Z,73.82
2018-12-16T10:04:01.043Z,73.61
2018-12-16T10:05:01.026Z,73.72
2018-12-16T10:06:01.019Z,72.57
2018-12-16T10:07:01.010Z,73.51
2018-12-16T10:08:01.013Z,72.88
2018-12-16T10:09:00.989Z,72.39
2018-12-16T10:10:00.978Z,74.17
2018-12-16T10:11:00.967Z,73.93
2018-12-16T10:12:00.958Z,74.04
2018-12-16T10:13:00.949Z,73.93
2018-12-16T10:14:00.947Z,73.96
2018-12-16T10:15:00.925Z,75.84
2018-12-16T10:16:00.910Z,74.24
2018-12-16T10:17:00.902Z,75.08
2018-12-16T10:18:00.890Z,73.86
2018-12-16T10:19:00.892Z,72.99
2018-12-16T10:20:00.870Z,74.04
2018-12-16T10:21:00.856Z,74.87
2018-12-16T10:22:00.849Z,74.76
2018-12-16T10:23:00.835Z,74.35
2018-12-16T10:24:00.832Z,74.35
2018-12-16T10:25:00.811Z,75.18
2018-12-16T10:26:00.805Z,74.66
2018-12-16T10:27:00.793Z,75.18
2018-12-16T10:28:00.782Z,75.08
2018-12-16T10:29:00.778Z,75.18
2018-12-16T10:30:00.759Z,73.51
2018-12-16T10:31:00.747Z,72.57
2018-12-16T10:32:00.739Z,72.25
2018-12-16T10:33:00.730Z,72.05
2018-12-16T10:34:00.728Z,69.85
2018-12-16T10:35:00.706Z,72.08
2018-12-16T10:36:00.696Z,71.03
2018-12-16T10:37:00.683Z,72.19
2018-12-16T10:38:00.672Z,72.99
2018-12-16T10:39:01.872Z,72.60
2018-12-16T10:40:00.649Z,73.09
2018-12-16T10:41:00.639Z,71.66
2018-12-16T10:42:00.634Z,71.94
2018-12-16T10:43:00.622Z,72.99
2018-12-16T10:44:00.617Z,73.30
2018-12-16T10:45:00.598Z,73.30
2018-12-16T10:46:00.588Z,72.88
2018-12-16T10:47:00.578Z,71.94
2018-12-16T10:48:00.564Z,73.19
2018-12-16T10:49:04.772Z,71.94
2018-12-16T10:50:00.544Z,72.25
2018-12-16T10:51:00.533Z,72.25
2018-12-16T10:52:00.528Z,72.53
2018-12-16T10:53:00.511Z,72.67
2018-12-16T10:54:00.515Z,70.27
2018-12-16T10:55:00.491Z,70.79
2018-12-16T10:56:00.485Z,72.67
2018-12-16T10:57:00.468Z,71.49
2018-12-16T10:58:00.458Z,68.67
2018-12-16T10:59:00.456Z,69.22
2018-12-16T11:00:00.436Z,68.18
2018-12-16T11:01:00.425Z,69.40
2018-12-16T11:02:00.417Z,69.22
2018-12-16T11:03:00.404Z,68.80
2018-12-16T11:04:00.423Z,68.88
2018-12-16T11:05:00.382Z,69.95
2018-12-16T11:06:00.374Z,70.68
2018-12-16T11:07:00.411Z,68.60
2018-12-16T11:08:00.349Z,69.95
2018-12-16T11:09:00.339Z,71.52
2018-12-16T11:10:00.342Z,68.38
2018-12-16T11:11:00.321Z,68.70
2018-12-16T11:12:00.309Z,68.60
2018-12-16T11:13:00.298Z,69.22
2018-12-16T11:14:00.287Z,70.17
2018-12-16T11:15:00.285Z,71.18
2018-12-16T11:16:00.266Z,69.85
2018-12-16T11:17:00.261Z,70.17
2018-12-16T11:18:00.245Z,69.64
2018-12-16T11:19:00.236Z,72.67
2018-12-16T11:20:00.240Z,71.28
2018-12-16T11:21:00.216Z,67.94
2018-12-16T11:22:00.243Z,68.60
2018-12-16T11:23:00.195Z,69.22
2018-12-16T11:24:00.180Z,68.91
2018-12-16T11:25:05.591Z,68.60
2018-12-16T11:26:01.158Z,68.07
2018-12-16T11:27:00.150Z,68.57
2018-12-16T11:28:00.138Z,68.57
2018-12-16T11:29:00.129Z,68.28
2018-12-16T11:30:00.127Z,67.44
2018-12-16T11:31:00.106Z,66.82
2018-12-16T11:32:00.094Z,67.44
2018-12-16T11:33:00.085Z,68.49
2018-12-16T11:34:00.072Z,68.49
2018-12-16T11:35:00.076Z,68.80
2018-12-16T11:36:00.052Z,68.70
2018-12-16T11:37:00.038Z,69.64
2018-12-16T11:38:00.029Z,69.74
2018-12-16T11:39:00.020Z,68.15
2018-12-16T11:40:00.021Z,69.22
2018-12-16T11:41:00.004Z,70.06
2018-12-16T11:41:59.984Z,70.03
2018-12-16T11:42:59.975Z,67.65
2018-12-16T11:43:59.966Z,68.67
2018-12-16T11:44:59.965Z,70.27
2018-12-16T11:45:59.948Z,68.77
2018-12-16T11:46:59.932Z,69.22
2018-12-16T11:47:59.922Z,70.48
2018-12-16T11:48:59.913Z,70.06
2018-12-16T11:49:59.912Z,71.94
2018-12-16T11:50:59.891Z,69.95
2018-12-16T11:51:59.886Z,68.70
2018-12-16T11:52:59.871Z,70.68
2018-12-16T11:53:59.856Z,71.42
2018-12-16T11:54:59.909Z,72.36
2018-12-16T11:55:59.839Z,69.64
2018-12-16T11:56:59.824Z,69.61
2018-12-16T11:57:59.816Z,67.62
2018-12-16T11:58:59.805Z,67.34
2018-12-16T11:59:59.846Z,68.80
2018-12-16T12:00:59.790Z,68.07
2018-12-16T12:01:59.771Z,67.34
2018-12-16T12:02:59.759Z,69.09
2018-12-16T12:03:59.749Z,69.29
2018-12-16T12:04:59.743Z,67.44
2018-12-16T12:05:59.738Z,68.49
2018-12-16T12:06:59.717Z,68.60
2018-12-16T12:07:59.705Z,69.95
2018-12-16T12:08:59.697Z,70.37
2018-12-16T12:09:59.690Z,69.85
2018-12-16T12:10:59.681Z,69.64
2018-12-16T12:11:59.663Z,67.13
2018-12-16T12:12:59.655Z,67.97
2018-12-16T12:13:59.642Z,67.73
2018-12-16T12:14:59.639Z,68.38
2018-12-16T12:15:59.639Z,67.52
2018-12-16T12:16:59.611Z,66.82
2018-12-16T12:17:59.599Z,67.73
2018-12-16T12:18:59.586Z,69.01
2018-12-16T12:19:59.578Z,69.12
2018-12-16T12:20:59.577Z,68.80
2018-12-16T12:22:04.397Z,68.77
2018-12-16T12:22:59.547Z,68.49
2018-12-16T12:23:59.535Z,67.94
2018-12-16T12:24:59.527Z,68.57
2018-12-16T12:25:59.522Z,68.77
2018-12-16T12:26:59.502Z,68.88
2018-12-16T12:27:59.494Z,69.19
2018-12-16T12:28:59.485Z,67.00
2018-12-16T12:29:59.470Z,66.82
2018-12-16T12:30:59.468Z,67.10
2018-12-16T12:31:59.450Z,66.71
2018-12-16T12:32:59.438Z,66.61
2018-12-16T12:33:59.430Z,67.00
2018-12-16T12:34:59.423Z,68.67
2018-12-16T12:35:59.703Z,67.10
2018-12-16T12:36:59.396Z,67.65
2018-12-16T12:37:59.386Z,68.28
2018-12-16T12:38:59.381Z,69.85
2018-12-16T12:39:59.365Z,68.15
2018-12-16T12:40:59.353Z,69.33
2018-12-16T12:41:59.358Z,68.49
2018-12-16T12:42:59.331Z,69.40
2018-12-16T12:43:59.323Z,70.24
2018-12-16T12:44:59.307Z,67.73
2018-12-16T12:45:59.298Z,67.73
2018-12-16T12:46:59.301Z,67.00
2018-12-16T12:47:59.275Z,67.00
2018-12-16T12:48:59.267Z,67.41
2018-12-16T12:49:59.259Z,66.61
2018-12-16T12:50:59.245Z,66.50
2018-12-16T12:51:59.242Z,67.55